Time;durP1;ratioP1;P1;durP2;ratioP2;P2;SDS_P1;SDS_P2;PMS_P1;PMS_P2;Temp;Humidity;BMP_temperature;BMP_pressure;BME280_temperature;BME280_humidity;BME280_pressure;Samples;Min_cycle;Max_cycle;Signal;HPM_P1;HPM_P2
2023/05/21 00:07:58;;;;;;;5.80;4.30;;;;;;;14.97;71.40;100171.65;437208;1253;139956;-65
2023/05/21 00:18:05;;;;;;;8.80;4.60;;;;;;;14.78;71.32;100162.08;437209;1251;141453;-64
2023/05/21 00:28:11;;;;;;;7.60;4.80;;;;;;;14.64;71.25;100161.67;437369;1251;139543;-64
2023/05/21 00:38:17;;;;;;;4.70;3.90;;;;;;;14.50;71.07;100157.54;437829;1253;138951;-63
2023/05/21 00:48:25;;;;;;;4.60;3.70;;;;;;;14.37;70.95;100154.00;437610;1253;139388;-64
2023/05/21 00:58:32;;;;;;;5.60;3.60;;;;;;;14.27;70.78;100155.95;437427;1253;139882;-64
2023/05/21 01:08:39;;;;;;;7.10;3.80;;;;;;;14.14;70.81;100157.91;436989;1251;141245;-64
2023/05/21 01:18:45;;;;;;;6.00;3.50;;;;;;;14.00;70.89;100156.23;437464;1251;139455;-64
2023/05/21 01:28:51;;;;;;;7.50;4.00;;;;;;;13.87;71.04;100157.13;436711;1251;139521;-63
2023/05/21 01:39:04;;;;;;;8.00;3.60;;;;;;;13.72;71.14;100143.91;437395;1250;139268;-65
2023/05/21 01:49:11;;;;;;;5.50;3.90;;;;;;;13.61;71.19;100138.89;437262;1251;139754;-64
2023/05/21 01:59:17;;;;;;;4.70;4.00;;;;;;;13.53;71.11;100134.30;436691;1250;139478;-64
2023/05/21 02:09:23;;;;;;;4.50;4.10;;;;;;;13.46;70.83;100125.27;437077;1253;138882;-65
2023/05/21 02:19:28;;;;;;;6.90;3.80;;;;;;;13.31;70.92;100123.27;436923;1250;138970;-65
2023/05/21 02:29:34;;;;;;;4.70;3.30;;;;;;;13.18;70.99;100117.80;437081;1253;139218;-64
2023/05/21 02:39:40;;;;;;;3.50;2.90;;;;;;;13.20;70.72;100116.77;436536;1253;140193;-65
2023/05/21 02:49:46;;;;;;;5.10;3.30;;;;;;;13.28;70.29;100112.69;436863;1251;139414;-64
2023/05/21 02:59:52;;;;;;;4.60;3.60;;;;;;;13.36;69.97;100109.36;436679;1253;140017;-64
2023/05/21 03:09:58;;;;;;;6.50;3.50;;;;;;;13.52;69.88;100110.39;438059;1250;140096;-64
2023/05/21 03:20:04;;;;;;;5.90;3.30;;;;;;;13.93;69.28;100100.77;436947;1253;139956;-65
2023/05/21 03:30:12;;;;;;;3.80;3.00;;;;;;;14.08;68.53;100093.92;436806;1251;139900;-63
2023/05/21 03:40:18;;;;;;;6.00;3.00;;;;;;;14.28;68.00;100093.26;437940;1253;139645;-64
2023/05/21 03:50:24;;;;;;;5.60;3.40;;;;;;;14.56;67.31;100096.31;437110;1253;139479;-64
2023/05/21 04:00:31;;;;;;;4.10;2.80;;;;;;;14.98;66.38;100095.27;436721;1253;140115;-64
2023/05/21 04:10:37;;;;;;;4.80;3.20;;;;;;;16.62;65.61;100093.21;436835;1250;139341;-65
2023/05/21 04:20:43;;;;;;;2.70;2.50;;;;;;;22.38;59.19;100089.92;436746;1251;139113;-63
2023/05/21 04:30:49;;;;;;;3.20;2.40;;;;;;;26.08;52.33;100082.46;436644;1251;139104;-64
2023/05/21 04:40:57;;;;;;;2.80;2.30;;;;;;;28.64;47.30;100078.44;436744;1253;140678;-65
2023/05/21 04:51:04;;;;;;;2.50;2.00;;;;;;;31.06;42.52;100069.06;437181;1253;138272;-65
2023/05/21 05:01:11;;;;;;;3.40;2.30;;;;;;;33.19;38.64;100065.21;436870;1253;138125;-65
2023/05/21 05:11:17;;;;;;;2.50;2.30;;;;;;;35.31;34.97;100055.51;436953;1251;138797;-65
2023/05/21 05:21:24;;;;;;;4.10;1.90;;;;;;;37.79;32.26;100056.34;436804;1251;138110;-65
2023/05/21 05:31:29;;;;;;;2.90;2.20;;;;;;;39.58;29.27;100054.27;436408;1254;138865;-65
2023/05/21 05:41:35;;;;;;;2.30;1.50;;;;;;;40.71;27.45;100054.97;437004;1253;139011;-66
2023/05/21 05:51:41;;;;;;;3.20;1.70;;;;;;;42.24;25.46;100054.96;437043;1249;139874;-67
2023/05/21 06:01:47;;;;;;;4.20;1.40;;;;;;;42.58;24.12;100050.95;437250;1251;138514;-67
2023/05/21 06:11:53;;;;;;;2.50;1.70;;;;;;;44.32;22.69;100042.33;437073;1253;138183;-65
2023/05/21 06:21:59;;;;;;;3.30;1.80;;;;;;;45.97;21.70;100036.23;436791;1253;139197;-66
2023/05/21 06:32:06;;;;;;;5.40;2.10;;;;;;;47.22;20.27;100031.17;436701;1252;138574;-66
2023/05/21 06:42:12;;;;;;;1.50;1.40;;;;;;;47.93;18.88;100029.39;437468;1250;139123;-67
2023/05/21 06:52:18;;;;;;;3.00;2.30;;;;;;;47.63;17.91;100033.40;436728;1251;139328;-66
2023/05/21 07:02:24;;;;;;;2.20;2.00;;;;;;;48.04;17.41;100030.25;436904;1253;138525;-66
2023/05/21 07:12:30;;;;;;;5.30;2.80;;;;;;;48.84;16.75;100025.71;436903;1251;139298;-66
2023/05/21 07:22:36;;;;;;;3.20;2.90;;;;;;;50.52;16.22;100026.64;436778;1253;149232;-66
2023/05/21 07:32:42;;;;;;;3.00;2.80;;;;;;;50.13;14.98;100025.50;437071;1253;138819;-66
2023/05/21 07:42:48;;;;;;;2.60;2.40;;;;;;;47.70;14.94;100013.17;437623;1251;138559;-66
2023/05/21 07:52:54;;;;;;;3.00;1.70;;;;;;;47.35;15.43;100008.74;436930;1251;138687;-65
2023/05/21 08:03:01;;;;;;;2.10;1.30;;;;;;;43.01;15.96;100013.86;437210;1251;138519;-66
2023/05/21 08:13:07;;;;;;;3.10;1.30;;;;;;;34.45;18.95;100021.13;436970;1251;139791;-66
2023/05/21 08:23:13;;;;;;;2.30;1.30;;;;;;;30.03;21.85;100026.56;436440;1251;139368;-65
2023/05/21 08:33:19;;;;;;;1.70;1.60;;;;;;;28.21;24.23;100024.52;436415;1251;138252;-65
2023/05/21 08:43:28;;;;;;;2.80;1.50;;;;;;;27.63;26.13;100015.48;436408;1254;138698;-65
2023/05/21 08:53:35;;;;;;;2.50;1.40;;;;;;;27.47;27.36;100008.83;436450;1251;138846;-67
2023/05/21 09:03:42;;;;;;;2.30;1.80;;;;;;;27.24;27.67;100012.59;436918;1253;138747;-65
2023/05/21 09:13:50;;;;;;;4.30;1.30;;;;;;;26.58;27.83;100010.49;437016;1251;138151;-65
2023/05/21 09:23:58;;;;;;;5.20;2.60;;;;;;;26.34;28.48;100005.15;437251;1253;139307;-65
2023/05/21 09:34:03;;;;;;;2.60;1.00;;;;;;;26.12;28.42;99997.25;437407;1252;139211;-66
2023/05/21 09:44:12;;;;;;;2.00;1.40;;;;;;;26.00;28.93;99994.42;436884;1253;138587;-65
2023/05/21 09:54:18;;;;;;;1.30;1.20;;;;;;;25.71;29.43;99990.88;437002;1250;138419;-64
2023/05/21 10:04:24;;;;;;;2.80;1.30;;;;;;;25.53;29.53;99989.34;436888;1251;138750;-65
2023/05/21 10:14:33;;;;;;;3.10;1.50;;;;;;;25.25;29.91;99981.81;437207;1251;138046;-65
2023/05/21 10:24:41;;;;;;;2.10;1.60;;;;;;;25.00;29.87;99969.02;437134;1252;138547;-65
2023/05/21 10:34:48;;;;;;;2.70;1.20;;;;;;;24.74;30.05;99966.51;437692;1253;138617;-64
2023/05/21 10:45:09;;;;;;;2.40;1.40;;;;;;;24.62;30.59;99965.67;437588;1251;138544;-67
2023/05/21 10:55:29;;;;;;;1.90;1.40;;;;;;;24.49;30.76;99959.80;437583;1250;138826;-66
2023/05/21 11:05:50;;;;;;;1.60;1.30;;;;;;;24.34;30.66;99958.81;437323;1251;139163;-69
2023/05/21 11:16:07;;;;;;;2.70;1.20;;;;;;;24.12;30.88;99948.13;437698;1252;138744;-67
2023/05/21 11:26:15;;;;;;;1.80;1.30;;;;;;;23.79;31.09;99944.71;437751;1253;138027;-66
2023/05/21 11:36:21;;;;;;;2.80;1.40;;;;;;;23.63;31.44;99949.98;437466;1253;139306;-65
2023/05/21 11:46:28;;;;;;;1.50;1.30;;;;;;;23.54;31.67;99947.39;436974;1251;138534;-64
2023/05/21 11:56:40;;;;;;;2.70;1.70;;;;;;;23.47;32.13;99938.20;437240;1251;139149;-65
2023/05/21 12:06:47;;;;;;;1.90;1.30;;;;;;;23.52;32.09;99935.50;437499;1251;138016;-64
2023/05/21 12:16:53;;;;;;;1.20;1.10;;;;;;;23.35;32.28;99930.80;436502;1251;138253;-65
2023/05/21 12:27:00;;;;;;;2.70;1.30;;;;;;;23.22;32.38;99925.89;436657;1253;137907;-65
2023/05/21 12:37:07;;;;;;;2.40;1.50;;;;;;;23.14;32.96;99924.13;437944;1250;138507;-66
2023/05/21 12:47:13;;;;;;;2.60;1.40;;;;;;;23.08;32.99;99921.01;436454;1253;138805;-64
2023/05/21 12:57:22;;;;;;;3.40;1.70;;;;;;;23.13;33.15;99911.36;437341;1248;139887;-64
2023/05/21 13:07:29;;;;;;;2.90;1.30;;;;;;;23.13;33.68;99907.67;437468;1251;137910;-65
2023/05/21 13:17:35;;;;;;;3.00;1.60;;;;;;;23.14;33.85;99909.83;436870;1253;138717;-65
2023/05/21 13:27:41;;;;;;;1.80;1.50;;;;;;;23.15;33.96;99898.09;436989;1253;138246;-65
2023/05/21 13:37:47;;;;;;;2.40;1.40;;;;;;;23.19;33.89;99895.07;437344;1253;138740;-67
2023/05/21 13:47:54;;;;;;;2.20;1.60;;;;;;;23.07;34.07;99888.15;437661;1250;138181;-66
2023/05/21 13:57:59;;;;;;;2.40;1.50;;;;;;;23.06;34.39;99886.31;437040;1251;138430;-65
2023/05/21 14:08:06;;;;;;;1.70;1.60;;;;;;;23.04;34.50;99881.33;437379;1251;139100;-64
2023/05/21 14:18:12;;;;;;;2.30;1.50;;;;;;;23.10;34.94;99876.77;437058;1253;138511;-64
2023/05/21 14:28:18;;;;;;;5.30;1.40;;;;;;;23.20;34.87;99876.48;436797;1251;138036;-67
2023/05/21 14:38:24;;;;;;;2.20;1.30;;;;;;;23.18;34.82;99876.58;437001;1253;137932;-65
2023/05/21 14:48:30;;;;;;;4.00;1.40;;;;;;;23.17;34.68;99870.56;436956;1253;139363;-66
2023/05/21 14:58:36;;;;;;;4.60;1.80;;;;;;;23.08;34.94;99865.59;436744;1253;138040;-66
2023/05/21 15:08:42;;;;;;;2.90;1.50;;;;;;;23.04;35.08;99859.54;436911;1253;138484;-62
2023/05/21 15:18:51;;;;;;;2.50;1.40;;;;;;;22.96;35.29;99849.86;437545;1252;138466;-63
2023/05/21 15:28:57;;;;;;;2.00;1.40;;;;;;;22.84;35.32;99851.79;437281;1253;139229;-64
2023/05/21 15:39:04;;;;;;;4.50;2.40;;;;;;;22.70;35.44;99847.84;437475;1253;138634;-65
2023/05/21 15:49:10;;;;;;;2.40;1.60;;;;;;;22.68;35.73;99843.89;437512;1254;138440;-63
2023/05/21 15:59:16;;;;;;;2.70;1.70;;;;;;;22.66;35.81;99841.99;437248;1253;138799;-64
2023/05/21 16:09:22;;;;;;;2.30;1.50;;;;;;;22.61;35.63;99838.84;437262;1253;138533;-64
2023/05/21 16:19:28;;;;;;;6.30;1.90;;;;;;;22.58;35.69;99848.56;437328;1250;137958;-62
2023/05/21 16:29:34;;;;;;;2.10;1.60;;;;;;;22.48;35.79;99840.19;436895;1253;139168;-63
2023/05/21 16:39:43;;;;;;;4.80;2.10;;;;;;;22.42;35.63;99839.01;436813;1252;138624;-62
2023/05/21 16:49:49;;;;;;;5.20;2.20;;;;;;;22.33;35.96;99836.08;436857;1253;138530;-63
2023/05/21 16:59:55;;;;;;;2.50;1.80;;;;;;;22.20;36.11;99837.36;436941;1253;139759;-62
2023/05/21 17:10:00;;;;;;;2.90;2.00;;;;;;;22.39;36.08;99850.63;437377;1253;139790;-62
2023/05/21 17:20:08;;;;;;;2.90;2.30;;;;;;;22.23;36.06;99854.70;437141;1252;139745;-64
2023/05/21 17:30:14;;;;;;;2.10;1.50;;;;;;;21.54;36.77;99846.69;437091;1251;139209;-62
2023/05/21 17:40:23;;;;;;;3.30;1.90;;;;;;;21.05;37.36;99837.19;437165;1251;138469;-63
2023/05/21 17:50:29;;;;;;;2.70;1.80;;;;;;;20.57;38.22;99841.15;436894;1253;138624;-63
2023/05/21 18:00:35;;;;;;;6.10;2.70;;;;;;;20.12;39.07;99840.02;437050;1253;138943;-62
2023/05/21 18:10:41;;;;;;;3.60;2.10;;;;;;;19.74;39.76;99838.16;436973;1251;139154;-62
2023/05/21 18:20:47;;;;;;;2.90;2.10;;;;;;;19.37;40.69;99841.75;437396;1253;138497;-62
2023/05/21 18:30:54;;;;;;;4.30;1.90;;;;;;;19.05;41.51;99847.86;436860;1254;138827;-62
2023/05/21 18:41:01;;;;;;;3.30;1.50;;;;;;;18.72;42.23;99858.92;437015;1251;138479;-63
2023/05/21 18:51:06;;;;;;;3.30;2.50;;;;;;;18.41;42.87;99860.54;437303;1253;138893;-64
2023/05/21 19:01:12;;;;;;;3.00;2.00;;;;;;;18.15;43.43;99867.36;436966;1251;138075;-62
2023/05/21 19:11:19;;;;;;;2.10;1.80;;;;;;;17.86;43.77;99881.25;436860;1253;138908;-62
2023/05/21 19:21:25;;;;;;;5.60;3.20;;;;;;;17.59;44.14;99886.31;436964;1251;143292;-62
2023/05/21 19:31:31;;;;;;;6.60;3.10;;;;;;;17.30;44.51;99889.02;437095;1251;138794;-63
2023/05/21 19:41:37;;;;;;;2.60;2.30;;;;;;;17.05;45.14;99894.55;437271;1251;139593;-63
2023/05/21 19:51:42;;;;;;;3.10;2.50;;;;;;;16.94;45.54;99889.04;437235;1251;138780;-62
2023/05/21 20:01:49;;;;;;;3.50;2.90;;;;;;;16.79;45.84;99877.20;437195;1253;139167;-63
2023/05/21 20:11:55;;;;;;;7.60;3.00;;;;;;;16.62;45.82;99873.51;437271;1253;141768;-63
2023/05/21 20:22:01;;;;;;;6.70;3.50;;;;;;;16.49;45.86;99870.20;437168;1253;139018;-60
2023/05/21 20:32:08;;;;;;;5.70;3.20;;;;;;;16.48;46.03;99875.27;436822;1249;138842;-65
2023/05/21 20:42:14;;;;;;;4.50;3.00;;;;;;;16.35;46.30;99878.96;437179;1253;138301;-63
2023/05/21 20:52:21;;;;;;;3.90;2.50;;;;;;;16.09;47.09;99873.84;437661;1251;139386;-62
2023/05/21 21:02:27;;;;;;;5.40;2.70;;;;;;;15.85;47.65;99868.42;436938;1250;138889;-62
2023/05/21 21:12:33;;;;;;;3.30;2.60;;;;;;;15.61;48.30;99869.98;437084;1253;138328;-64
2023/05/21 21:22:39;;;;;;;3.20;2.90;;;;;;;15.40;48.85;99878.47;437798;1251;139259;-61
2023/05/21 21:32:48;;;;;;;6.10;2.50;;;;;;;15.27;49.17;99880.61;437838;1253;138374;-63
2023/05/21 21:42:54;;;;;;;3.70;3.00;;;;;;;15.18;49.36;99880.77;437333;1249;138199;-61
2023/05/21 21:53:02;;;;;;;6.00;2.60;;;;;;;15.08;49.44;99888.02;437104;1253;138869;-62
2023/05/21 22:03:06;;;;;;;;;;;;;;;14.97;49.58;99896.17;437897;1251;138269;-63
2023/05/21 22:13:13;;;;;;;6.50;2.90;;;;;;;14.80;50.04;99892.20;436483;1249;125502;-62
2023/05/21 22:23:19;;;;;;;3.20;2.70;;;;;;;14.66;50.25;99893.39;441967;1250;139193;-63
2023/05/21 22:33:25;;;;;;;3.60;2.20;;;;;;;14.52;50.53;99893.21;436563;1250;138405;-62
2023/05/21 22:43:32;;;;;;;3.60;2.40;;;;;;;14.32;50.85;99889.35;437679;1251;138273;-62
2023/05/21 22:53:38;;;;;;;4.80;2.00;;;;;;;14.16;51.21;99888.45;436889;1251;139497;-62
2023/05/21 23:03:44;;;;;;;5.00;2.50;;;;;;;13.94;51.71;99887.04;436687;1251;139185;-62
2023/05/21 23:13:50;;;;;;;3.80;3.10;;;;;;;13.79;52.35;99883.94;436547;1251;138518;-63
2023/05/21 23:23:55;;;;;;;3.80;2.70;;;;;;;13.58;52.77;99883.70;436674;1253;139601;-61
2023/05/21 23:34:03;;;;;;;4.20;2.90;;;;;;;13.35;53.34;99877.38;436533;1251;139943;-61
2023/05/21 23:44:10;;;;;;;3.00;2.50;;;;;;;13.10;53.94;99873.65;437989;1250;138256;-61
2023/05/21 23:54:16;;;;;;;5.30;2.90;;;;;;;12.93;54.51;99868.30;437616;1250;139361;-62
